• Join FlightAware (Why Join?)
  • Login
  • US Flag 
08:27AM EDT


 

Airport Tracker/Info


-or-


 

Live Flight TrackerFlight Track Log ✈ N36DA ✈ 19-Jul-2013 ✈ KBAF - KUNV

Flight Track Log - Related Links

Times and Time Zones

All times are in EDT time to prevent confusion due to time zone crossing. See the N36DA flight status page for this flight to view local times or setup timezone preferences in your user account.

Time Position Orientation Groundspeed Altitude Reporting Facility
EDT Latitude Longitude Course Direction KTS MPH feet Rate Location/Type
01:13PM 42.1375 -72.7256 253° West 158 182 1,000  Level Boston Center
01:14PM 42.1289 -72.7647 253° West 176 203 1,900 1,380 Climbing Boston Center
01:15PM 42.1286 -72.8572 270° West 230 265 3,400 1,740 Climbing Boston Center
01:16PM 42.1283 -72.9411 270° West 270 311 5,500 2,040 Climbing Boston Center
01:17PM 42.1281 -73.0253 270° West 259 298 7,400 2,220 Climbing Boston Center
01:18PM 42.1294 -73.1317 271° West 259 298 10,000 2,040 Climbing Boston Center
01:19PM 42.1267 -73.2267 268° West 268 308 11,500 1,440 Climbing Boston Center
01:20PM 42.1217 -73.3358 267° West 282 325 12,900 1,380 Climbing Boston Center
01:21PM 42.1125 -73.4419 263° West 301 346 14,300 1,320 Climbing Boston Center
01:22PM 42.1028 -73.5817 265° West 315 362 15,900 720 Climbing Boston Center
01:23PM 42.0742 -73.7211 255° West 320 368 15,900  Level Boston Center
01:24PM 42.0375 -73.8267 245° Southwest 312 359 16,000  Climbing Boston Center
01:25PM 42.0028 -73.9375 247° West 312 359 16,000  Level Boston Center
01:26PM 41.9639 -74.0483 245° Southwest 312 359 16,000  Level Boston Center
01:27PM 41.9311 -74.1508 247° West 307 353 16,000  Level Boston Center
01:28PM 41.9006 -74.2392 245° Southwest 300 345 16,100  Climbing Boston Center
01:30PM 41.8175 -74.4836 246° West 303 349 16,000 -60 Descending New York Center
01:31PM 41.7875 -74.5767 247° West 303 349 16,000  Level New York Center
01:32PM 41.7483 -74.6883 245° Southwest 303 349 16,000  Level New York Center
01:33PM 41.7164 -74.7781 245° Southwest 303 349 16,000  Level New York Center
01:34PM 41.6872 -74.8931 251° West 303 349 16,000  Level New York Center
01:35PM 41.6708 -75.0058 259° West 303 349 16,000 -60 Level New York Center
01:36PM 41.6506 -75.1044 255° West 308 354 15,900 -60 Descending New York Center
01:37PM 41.6319 -75.2142 257° West 313 360 15,900  Level New York Center
01:38PM 41.6108 -75.3350 257° West 313 360 16,000  Climbing New York Center
01:39PM 41.5897 -75.4444 256° West 313 360 15,900 -60 Descending New York Center
01:40PM 41.5714 -75.5431 256° West 313 360 15,900  Level New York Center
01:41PM 41.5500 -75.6550 256° West 313 360 15,900  Level New York Center
01:42PM 41.5283 -75.7781 257° West 313 360 15,900  Level New York Center
01:43PM 41.5069 -75.8875 255° West 313 360 15,900  Level New York Center
01:44PM 41.4853 -76.0019 256° West 313 360 15,900  Level New York Center
01:45PM 41.4658 -76.1114 257° West 318 366 15,900  Level New York Center
01:46PM 41.4442 -76.2203 255° West 313 360 15,900  Level New York Center
01:47PM 41.4250 -76.3211 256° West 313 360 15,900  Level New York Center
01:48PM 41.4006 -76.4436 255° West 313 360 15,900  Level New York Center
01:49PM 41.3783 -76.5550 255° West 313 360 15,900  Level New York Center
01:50PM 41.3564 -76.6664 255° West 313 360 15,900 -360 Level New York Center
01:51PM 41.3222 -76.7658 245° Southwest 319 367 15,300 -1,140 Descending New York Center
01:52PM 41.2794 -76.8697 241° Southwest 325 374 13,700 -1,620 Descending New York Center
01:53PM 41.2392 -76.9625 240° Southwest 320 368 12,100 -1,740 Descending New York Center
01:54PM 41.2008 -77.0556 241° Southwest 303 349 10,300 -1,620 Descending New York Center
01:55PM 41.1650 -77.1406 241° Southwest 286 329 8,900 -1,620 Descending New York Center
01:56PM 41.1294 -77.2225 240° Southwest 272 313 7,100 -1,860 Descending New York Center
01:57PM 41.0936 -77.3072 241° Southwest 266 306 5,300 -1,560 Descending New York Center
01:58PM 41.0572 -77.3975 242° Southwest 261 300 4,100 -600 Descending New York Center
01:59PM 41.0256 -77.4769 242° Southwest 255 293 4,100  Level New York Center
02:00PM 40.9969 -77.5428 240° Southwest 244 281 4,200  Climbing New York Center
02:01PM 40.9681 -77.6114 241° Southwest 232 267 4,200 -60 Level New York Center
02:02PM 40.9411 -77.6775 242° Southwest 225 259 4,100 -120 Descending New York Center
02:03PM 40.9150 -77.7325 238° Southwest 202 232 4,000 -840 Descending New York Center
02:04PM 40.8917 -77.7739 233° Southwest 173 199 2,500 -1,500 Descending New York Center
02:06PM 40.8333 -77.8333 217° Southwest  Level FlightAware Approximate
02:13PM 40.8493 -77.8487 217° Southwest  Level Estimated